• Join FlightAware (Why Join?)
  • Login
  • US Flag 
04:53AM EDT


 

Airport Tracker/Info


-or-


 

Live Flight TrackerFlight Track Log ✈ EJA829P ✈ 20-Mar-2014 ✈ KIAD - CYYZ

Flight Track Log - Related Links

Times and Time Zones

All times are in EDT time to prevent confusion due to time zone crossing. See the EJA829P flight status page for this flight to view local times or setup timezone preferences in your user account.

Time Position Orientation Groundspeed Altitude Reporting Facility
EDT Latitude Longitude Course Direction KTS MPH feet Rate Location/Type
12:51PM 38.9833 -77.4333 345° North 206 237 3,100  Level Potomac TRACON
12:52PM 39.0333 -77.4500 345° North 225 259 5,600 2,220 Climbing Potomac TRACON
12:53PM 39.1000 -77.4500 360° North 221 254 7,600 1,320 Climbing Potomac TRACON
12:54PM 39.1833 -77.4500 360° North 239 275 8,500 1,200 Climbing Potomac TRACON
12:56PM 39.2783 -77.4469 North 267 307 10,900 1,680 Climbing Washington Center
12:57PM 39.3617 -77.4492 359° North 279 321 12,900 2,040 Climbing Washington Center
12:59PM 39.5425 -77.4533 359° North 320 368 16,800 1,980 Climbing New York Center
01:00PM 39.6217 -77.4556 359° North 326 375 18,800 2,040 Climbing New York Center
01:01PM 39.7217 -77.4569 359° North 326 375 20,900 2,100 Climbing New York Center
01:02PM 39.8197 -77.4556 North 331 381 23,000 2,040 Climbing New York Center
01:03PM 39.9189 -77.4758 351° North 342 394 25,000 1,980 Climbing New York Center
01:04PM 40.0189 -77.5125 344° North 355 409 27,000 1,740 Climbing New York Center
01:05PM 40.1006 -77.5419 345° North 367 422 28,500 1,500 Climbing New York Center
01:06PM 40.2089 -77.5825 344° North 367 422 30,000 720 Climbing New York Center
01:07PM 40.3169 -77.6231 344° North 386 444 30,000  Level New York Center
01:08PM 40.4253 -77.6611 345° North 398 458 30,000  Level New York Center
01:09PM 40.5311 -77.7017 344° North 398 458 30,000  Level New York Center
01:10PM 40.6414 -77.7431 344° North 398 458 30,000  Level New York Center
01:11PM 40.7472 -77.7839 344° North 398 458 30,000  Level New York Center
01:12PM 40.8572 -77.8281 343° North 398 458 30,000  Level New York Center
01:13PM 40.9633 -77.8694 344° North 398 458 30,000  Level New York Center
01:14PM 41.0692 -77.9081 345° North 393 452 30,000  Level New York Center
01:16PM 41.3189 -78.0044 344° North 404 465 30,000  Level Cleveland Center
01:17PM 41.4239 -78.0442 344° North 402 463 30,000  Level Cleveland Center
01:18PM 41.5486 -78.0931 344° North 397 457 30,000  Level Cleveland Center
01:19PM 41.6519 -78.1336 344° North 395 455 30,000  Level Cleveland Center
01:20PM 41.7464 -78.1903 336° Northwest 383 441 30,000  Level Cleveland Center
01:21PM 41.7864 -78.3044 295° West 353 406 30,000  Level Cleveland Center
01:22PM 41.8033 -78.4272 281° West 343 395 30,000  Level Cleveland Center
01:23PM 41.8619 -78.5633 300° West 360 414 30,000  Level Cleveland Center
01:24PM 41.9547 -78.6281 333° Northwest 381 438 30,000  Level Cleveland Center
01:25PM 42.0658 -78.6347 357° North 401 461 30,000  Level Cleveland Center
01:26PM 42.1808 -78.6364 359° North 404 465 30,000  Level Cleveland Center
01:27PM 42.2950 -78.6381 359° North 408 470 30,000 -300 Level Cleveland Center
01:28PM 42.4083 -78.6406 359° North 407 468 29,500 -1,140 Descending Cleveland Center
01:29PM 42.5475 -78.6422 359° North 411 473 27,700 -1,860 Descending Cleveland Center
01:30PM 42.6592 -78.6444 359° North 402 463 25,700 -1,980 Descending Cleveland Center
01:31PM 42.7483 -78.7103 332° Northwest 370 426 23,700 -1,980 Descending Cleveland Center
01:32PM 42.8244 -78.7986 320° Northwest 359 413 21,700 -2,040 Descending Cleveland Center
01:33PM 42.8975 -78.8828 320° Northwest 346 398 19,600 -2,100 Descending Cleveland Center
01:34PM 42.9500 -78.9333 325° Northwest 330 380 18,000 -2,280 Descending Toronto Center
01:35PM 43.0167 -79.0167 318° Northwest 320 368 15,700 -2,100 Descending Toronto Center
01:36PM 43.0833 -79.0833 324° Northwest 310 357 13,800 -1,860 Descending Toronto Center
01:37PM 43.1500 -79.1500 324° Northwest 300 345 12,000 -900 Descending Toronto Center
01:38PM 43.2000 -79.2167 316° Northwest 280 322 12,000  Level Toronto Center
01:39PM 43.2667 -79.2833 324° Northwest 270 311 12,000 -120 Level Toronto Center
01:40PM 43.3167 -79.3500 316° Northwest 270 311 11,800 -1,260 Descending Toronto Center
01:41PM 43.3833 -79.4000 331° Northwest 270 311 9,500 -1,920 Descending Toronto Center
01:42PM 43.4500 -79.4333 340° North 260 299 8,000 -780 Descending Toronto Center
01:43PM 43.5167 -79.4667 340° North 250 288 8,000 -300 Level Toronto Center
01:44PM 43.5667 -79.5167 324° Northwest 230 265 7,500 -900 Descending Toronto Center
01:45PM 43.6333 -79.4667 28° Northeast 250 288 6,300 -1,380 Descending Toronto Center
01:46PM 43.6667 -79.4000 55° Northeast 250 288 4,800 -1,140 Descending Toronto Center
01:47PM 43.7167 -79.3333 44° Northeast 230 265 4,100 -900 Descending Toronto Center
01:48PM 43.7667 -79.3167 14° North 210 242 3,000 -540 Descending Toronto Center
01:49PM 43.8000 -79.3500 324° Northwest 160 184 3,100  Climbing Toronto Center
01:50PM 43.7833 -79.4000 245° Southwest 150 173 3,100  Level Toronto Center
01:51PM 43.7500 -79.4500 227° Southwest 150 173 3,100 -300 Level Toronto Center
01:52PM 43.7333 -79.5000 245° Southwest 150 173 2,500 -780 Descending Toronto Center
01:53PM 43.7000 -79.5333 216° Southwest 140 161 1,600 -840 Descending Toronto Center
01:54PM 43.6833 -79.5667 235° Southwest 110 127 900 -720 Descending Toronto Center